Time,TemperatureF,DewpointF,PressureIn,WindDirection,WindDirectionDegrees,WindSpeedMPH,WindSpeedGustMPH,Humidity,HourlyPrecipIn,Conditions,Clouds,dailyrainin,SolarRadiationWatts/m^2,SoftwareType,DateUTC
2013-01-29 00:01:00,30.0,30.0,-100.00,ESE,109,7.0,11.0,100,0.00,,,0.11,1.000000,,2013-01-29 06:01:00,
2013-01-29 00:32:00,30.0,30.0,-100.00,South,190,1.0,9.0,100,0.00,,,0.11,1.000000,,2013-01-29 06:32:00,
2013-01-29 00:42:00,30.0,30.0,-100.00,South,190,1.0,9.0,100,0.00,,,0.11,1.000000,,2013-01-29 06:42:00,
2013-01-29 00:52:00,30.0,30.0,-100.00,South,190,1.0,9.0,100,0.00,,,0.11,1.000000,,2013-01-29 06:52:00,
2013-01-29 01:01:00,30.0,30.0,-100.00,South,190,1.0,9.0,100,0.00,,,0.11,1.000000,,2013-01-29 07:01:00,
2013-01-29 01:32:00,31.0,31.0,-100.00,NE,55,3.0,4.0,100,0.00,,,0.11,1.000000,,2013-01-29 07:32:00,
2013-01-29 01:42:00,31.0,31.0,-100.00,NE,55,3.0,4.0,100,0.00,,,0.11,1.000000,,2013-01-29 07:42:00,
2013-01-29 01:52:00,31.0,31.0,-100.00,NE,55,3.0,4.0,100,0.00,,,0.11,1.000000,,2013-01-29 07:52:00,
2013-01-29 02:02:00,31.0,31.0,-100.00,NE,55,3.0,4.0,100,0.00,,,0.11,1.000000,,2013-01-29 08:02:00,
2013-01-29 02:32:00,31.0,31.0,-100.00,ENE,66,3.0,5.0,100,0.00,,,0.11,1.000000,,2013-01-29 08:32:00,
2013-01-29 02:42:00,31.0,31.0,-100.00,ENE,66,3.0,5.0,100,0.00,,,0.11,1.000000,,2013-01-29 08:42:00,
2013-01-29 02:52:00,31.0,31.0,-100.00,ENE,66,3.0,5.0,100,0.00,,,0.11,1.000000,,2013-01-29 08:52:00,
2013-01-29 03:01:00,31.0,31.0,-100.00,ENE,66,3.0,5.0,100,0.00,,,0.11,1.000000,,2013-01-29 09:01:00,
2013-01-29 03:32:00,31.0,31.0,-100.00,ENE,64,4.0,7.0,100,0.00,,,0.11,1.000000,,2013-01-29 09:32:00,
2013-01-29 03:42:00,31.0,31.0,-100.00,ENE,64,4.0,7.0,100,0.00,,,0.11,1.000000,,2013-01-29 09:42:00,
2013-01-29 03:52:00,31.0,31.0,-100.00,ENE,64,4.0,7.0,100,0.00,,,0.11,1.000000,,2013-01-29 09:52:00,
2013-01-29 04:01:00,31.0,31.0,-100.00,ENE,64,4.0,7.0,100,0.00,,,0.11,1.000000,,2013-01-29 10:01:00,
2013-01-29 04:32:00,31.0,31.0,-100.00,ENE,76,3.0,4.0,100,0.00,,,0.11,1.000000,,2013-01-29 10:32:00,
2013-01-29 04:42:00,31.0,31.0,-100.00,ENE,76,3.0,4.0,100,0.00,,,0.11,1.000000,,2013-01-29 10:42:00,
2013-01-29 04:52:00,31.0,31.0,-100.00,ENE,76,3.0,4.0,100,0.00,,,0.11,1.000000,,2013-01-29 10:52:00,
2013-01-29 05:02:00,31.0,31.0,-100.00,ENE,76,3.0,4.0,100,0.00,,,0.11,1.000000,,2013-01-29 11:02:00,
2013-01-29 05:32:00,31.0,31.0,-100.00,WNW,300,5.0,7.0,100,0.00,,,0.11,1.000000,,2013-01-29 11:32:00,
2013-01-29 05:42:00,31.0,31.0,-100.00,WNW,300,5.0,7.0,100,0.00,,,0.11,1.000000,,2013-01-29 11:42:00,
2013-01-29 05:53:00,31.0,31.0,-100.00,WNW,300,5.0,7.0,100,0.00,,,0.11,1.000000,,2013-01-29 11:53:00,
2013-01-29 06:02:00,31.0,31.0,-100.00,WNW,300,5.0,7.0,100,0.00,,,0.11,1.000000,,2013-01-29 12:02:00,
2013-01-29 06:33:00,31.0,31.0,-100.00,WNW,290,4.0,6.0,100,0.00,,,0.11,1.000000,,2013-01-29 12:33:00,
2013-01-29 06:43:00,31.0,31.0,-100.00,WNW,290,4.0,6.0,100,0.00,,,0.11,1.000000,,2013-01-29 12:43:00,
2013-01-29 06:53:00,31.0,31.0,-100.00,WNW,290,4.0,6.0,100,0.00,,,0.11,1.000000,,2013-01-29 12:53:00,
2013-01-29 07:02:00,31.0,31.0,-100.00,WNW,290,4.0,6.0,100,0.00,,,0.11,1.000000,,2013-01-29 13:02:00,
2013-01-29 07:32:00,31.0,31.0,-100.00,NW,325,3.0,4.0,100,0.00,,,0.11,1.000000,,2013-01-29 13:32:00,
2013-01-29 07:43:00,31.0,31.0,-100.00,NW,325,3.0,4.0,100,0.00,,,0.11,1.000000,,2013-01-29 13:43:00,
2013-01-29 07:52:00,31.0,31.0,-100.00,NW,325,3.0,4.0,100,0.00,,,0.11,1.000000,,2013-01-29 13:52:00,
2013-01-29 08:02:00,31.0,31.0,-100.00,NW,325,3.0,4.0,100,0.00,,,0.11,1.000000,,2013-01-29 14:02:00,
2013-01-29 08:33:00,31.0,31.0,-100.00,WSW,237,4.0,7.0,100,0.00,,,0.11,6.000000,,2013-01-29 14:33:00,
2013-01-29 08:43:00,31.0,31.0,-100.00,WSW,237,4.0,7.0,100,0.00,,,0.11,6.000000,,2013-01-29 14:43:00,
2013-01-29 08:53:00,31.0,31.0,-100.00,WSW,237,4.0,7.0,100,0.00,,,0.11,6.000000,,2013-01-29 14:53:00,
2013-01-29 09:02:00,31.0,31.0,-100.00,WSW,237,4.0,7.0,100,0.00,,,0.11,6.000000,,2013-01-29 15:02:00,
2013-01-29 09:33:00,32.0,31.0,-100.00,WNW,301,8.0,11.0,96,0.00,,,0.11,30.000000,,2013-01-29 15:33:00,
2013-01-29 09:43:00,32.0,31.0,-100.00,WNW,301,8.0,11.0,96,0.00,,,0.11,30.000000,,2013-01-29 15:43:00,
2013-01-29 09:53:00,32.0,31.0,-100.00,WNW,301,8.0,11.0,96,0.00,,,0.11,30.000000,,2013-01-29 15:53:00,
2013-01-29 10:02:00,32.0,31.0,-100.00,WNW,301,8.0,11.0,96,0.00,,,0.11,30.000000,,2013-01-29 16:02:00,
2013-01-29 10:33:00,33.0,30.0,-100.00,NW,322,12.0,17.0,88,0.00,,,0.11,88.000000,,2013-01-29 16:33:00,
2013-01-29 10:43:00,33.0,30.0,-100.00,NW,322,12.0,17.0,88,0.00,,,0.11,88.000000,,2013-01-29 16:43:00,
2013-01-29 10:53:00,33.0,30.0,-100.00,NW,322,12.0,17.0,88,0.00,,,0.11,88.000000,,2013-01-29 16:53:00,
2013-01-29 11:03:00,33.0,30.0,-100.00,NW,322,12.0,17.0,88,0.00,,,0.11,88.000000,,2013-01-29 17:03:00,
2013-01-29 11:33:00,34.0,30.0,-100.00,NNW,331,6.0,20.0,86,0.05,,,0.16,172.000000,,2013-01-29 17:33:00,
2013-01-29 11:42:00,34.0,30.0,-100.00,NNW,331,6.0,20.0,86,0.05,,,0.16,172.000000,,2013-01-29 17:42:00,
2013-01-29 11:52:00,34.0,30.0,-100.00,NNW,331,6.0,20.0,86,0.05,,,0.16,172.000000,,2013-01-29 17:52:00,
2013-01-29 12:33:00,33.0,29.0,-100.00,NW,306,12.0,17.0,85,0.01,,,0.17,225.000000,,2013-01-29 18:33:00,
2013-01-29 12:42:00,33.0,29.0,-100.00,NW,306,12.0,17.0,85,0.01,,,0.17,225.000000,,2013-01-29 18:42:00,
2013-01-29 12:52:00,33.0,29.0,-100.00,NW,306,12.0,17.0,85,0.01,,,0.17,225.000000,,2013-01-29 18:52:00,
2013-01-29 13:02:00,33.0,29.0,-100.00,NW,306,12.0,17.0,85,0.01,,,0.17,225.000000,,2013-01-29 19:02:00,
2013-01-29 13:33:00,33.0,28.0,-100.00,NW,320,12.0,17.0,83,0.01,,,0.13,234.000000,,2013-01-29 19:33:00,
2013-01-29 13:42:00,33.0,28.0,-100.00,NW,320,12.0,17.0,83,0.01,,,0.13,234.000000,,2013-01-29 19:42:00,
2013-01-29 13:52:00,33.0,28.0,-100.00,NW,320,12.0,17.0,83,0.01,,,0.13,234.000000,,2013-01-29 19:52:00,
2013-01-29 14:02:00,33.0,28.0,-100.00,NW,320,12.0,17.0,83,0.01,,,0.13,234.000000,,2013-01-29 20:02:00,
2013-01-29 14:33:00,33.0,28.0,-100.00,NW,318,10.0,18.0,83,0.00,,,0.10,214.000000,,2013-01-29 20:33:00,
2013-01-29 14:42:00,33.0,28.0,-100.00,NW,318,10.0,18.0,83,0.00,,,0.10,214.000000,,2013-01-29 20:42:00,
2013-01-29 14:53:00,33.0,28.0,-100.00,NW,318,10.0,18.0,83,0.00,,,0.10,214.000000,,2013-01-29 20:53:00,
2013-01-29 15:03:00,33.0,28.0,-100.00,NW,318,10.0,18.0,83,0.00,,,0.10,214.000000,,2013-01-29 21:03:00,
2013-01-29 15:34:00,32.0,27.0,-100.00,NW,315,13.0,17.0,80,0.01,,,0.09,145.000000,,2013-01-29 21:34:00,
2013-01-29 15:42:00,32.0,27.0,-100.00,NW,315,13.0,17.0,80,0.01,,,0.09,145.000000,,2013-01-29 21:42:00,
2013-01-29 15:53:00,32.0,27.0,-100.00,NW,315,13.0,17.0,80,0.01,,,0.09,145.000000,,2013-01-29 21:53:00,
2013-01-29 16:02:00,32.0,27.0,-100.00,NW,315,13.0,17.0,80,0.01,,,0.09,145.000000,,2013-01-29 22:02:00,
2013-01-29 16:33:00,31.0,25.0,-100.00,NW,316,12.0,18.0,79,0.00,,,0.08,124.000000,,2013-01-29 22:33:00,
2013-01-29 16:42:00,31.0,25.0,-100.00,NW,316,12.0,18.0,79,0.00,,,0.08,124.000000,,2013-01-29 22:42:00,
2013-01-29 16:53:00,31.0,25.0,-100.00,NW,316,12.0,18.0,79,0.00,,,0.08,124.000000,,2013-01-29 22:53:00,
2013-01-29 17:02:00,31.0,25.0,-100.00,NW,316,12.0,18.0,79,0.00,,,0.08,124.000000,,2013-01-29 23:02:00,
2013-01-29 17:33:00,29.0,23.0,-100.00,NW,323,15.0,20.0,78,0.00,,,0.08,32.000000,,2013-01-29 23:33:00,
2013-01-29 17:42:00,29.0,23.0,-100.00,NW,323,15.0,20.0,78,0.00,,,0.08,32.000000,,2013-01-29 23:42:00,
2013-01-29 17:53:00,29.0,23.0,-100.00,NW,323,15.0,20.0,78,0.00,,,0.08,32.000000,,2013-01-29 23:53:00,
2013-01-29 18:03:00,29.0,23.0,-100.00,NW,323,15.0,20.0,78,0.00,,,0.08,32.000000,,2013-01-30 00:03:00,
2013-01-29 18:33:00,28.0,21.0,-100.00,NNW,338,13.0,20.0,75,0.00,,,0.08,2.000000,,2013-01-30 00:33:00,
2013-01-29 18:43:00,28.0,21.0,-100.00,NNW,338,13.0,20.0,75,0.00,,,0.08,2.000000,,2013-01-30 00:43:00,
2013-01-29 18:53:00,28.0,21.0,-100.00,NNW,338,13.0,20.0,75,0.00,,,0.08,2.000000,,2013-01-30 00:53:00,
2013-01-29 19:02:00,28.0,21.0,-100.00,NNW,338,13.0,20.0,75,0.00,,,0.08,2.000000,,2013-01-30 01:02:00,
2013-01-29 19:32:00,28.0,21.0,-100.00,NNW,348,10.0,18.0,76,0.00,,,0.08,1.000000,,2013-01-30 01:32:00,
2013-01-29 19:43:00,28.0,21.0,-100.00,NNW,348,10.0,18.0,76,0.00,,,0.08,1.000000,,2013-01-30 01:43:00,
2013-01-29 19:52:00,28.0,21.0,-100.00,NNW,348,10.0,18.0,76,0.00,,,0.08,1.000000,,2013-01-30 01:52:00,
2013-01-29 20:02:00,28.0,21.0,-100.00,NNW,348,10.0,18.0,76,0.00,,,0.08,1.000000,,2013-01-30 02:02:00,
2013-01-29 20:33:00,28.0,22.0,-100.00,NNW,337,7.0,19.0,78,0.00,,,0.08,1.000000,,2013-01-30 02:33:00,
2013-01-29 20:42:00,28.0,22.0,-100.00,NNW,337,7.0,19.0,78,0.00,,,0.08,1.000000,,2013-01-30 02:42:00,
2013-01-29 20:53:00,28.0,22.0,-100.00,NNW,337,7.0,19.0,78,0.00,,,0.08,1.000000,,2013-01-30 02:53:00,
2013-01-29 21:03:00,28.0,22.0,-100.00,NNW,337,7.0,19.0,78,0.00,,,0.08,1.000000,,2013-01-30 03:03:00,
2013-01-29 21:32:00,28.0,21.0,-100.00,North,352,10.0,19.0,75,0.00,,,0.08,1.000000,,2013-01-30 03:32:00,
2013-01-29 21:42:00,28.0,21.0,-100.00,North,352,10.0,19.0,75,0.00,,,0.08,1.000000,,2013-01-30 03:42:00,
2013-01-29 21:52:00,28.0,21.0,-100.00,North,352,10.0,19.0,75,0.00,,,0.08,1.000000,,2013-01-30 03:52:00,
2013-01-29 22:02:00,28.0,21.0,-100.00,North,352,10.0,19.0,75,0.00,,,0.08,1.000000,,2013-01-30 04:02:00,
2013-01-29 22:32:00,26.0,18.0,-100.00,NNW,341,9.0,21.0,72,0.00,,,0.08,1.000000,,2013-01-30 04:32:00,
2013-01-29 22:42:00,26.0,18.0,-100.00,NNW,341,9.0,21.0,72,0.00,,,0.08,1.000000,,2013-01-30 04:42:00,
2013-01-29 22:52:00,26.0,18.0,-100.00,NNW,341,9.0,21.0,72,0.00,,,0.08,1.000000,,2013-01-30 04:52:00,
2013-01-29 23:03:00,26.0,18.0,-100.00,NNW,341,9.0,21.0,72,0.00,,,0.08,1.000000,,2013-01-30 05:03:00,
2013-01-29 23:32:00,25.0,18.0,-100.00,NNW,341,8.0,14.0,73,0.00,,,0.08,1.000000,,2013-01-30 05:32:00,
2013-01-29 23:43:00,25.0,18.0,-100.00,NNW,341,8.0,14.0,73,0.00,,,0.08,1.000000,,2013-01-30 05:43:00,
2013-01-29 23:52:00,25.0,18.0,-100.00,NNW,341,8.0,14.0,73,0.00,,,0.08,1.000000,,2013-01-30 05:52:00,